Time;durP1;ratioP1;P1;durP2;ratioP2;P2;SDS_P1;SDS_P2;PMS_P1;PMS_P2;Temp;Humidity;BMP_temperature;BMP_pressure;BME280_temperature;BME280_humidity;BME280_pressure;Samples;Min_cycle;Max_cycle;Signal;HPM_P1;HPM_P2
2022/05/14 00:00:25;;;;;;;5.50;4.40;;;21.30;99.90;;;;;;5075909;28;20039;-61
2022/05/14 00:02:51;;;;;;;4.95;3.90;;;21.20;99.90;;;;;;5075645;28;20109;-62
2022/05/14 00:05:19;;;;;;;5.53;3.95;;;21.20;99.90;;;;;;5075968;28;20051;-59
2022/05/14 00:07:46;;;;;;;3.88;3.58;;;21.30;99.90;;;;;;5075682;28;20119;-59
2022/05/14 00:10:13;;;;;;;4.80;4.40;;;21.30;99.90;;;;;;5075749;28;20033;-62
2022/05/14 00:15:23;;;;;;;4.90;4.38;;;21.20;99.90;;;;;;5075836;28;20063;-61
2022/05/14 00:17:49;;;;;;;4.13;3.25;;;21.10;99.90;;;;;;5075741;28;20406;-56
2022/05/14 00:20:15;;;;;;;5.15;4.20;;;21.10;99.90;;;;;;5075643;28;20387;-59
2022/05/14 00:22:42;;;;;;;5.65;3.83;;;21.10;99.90;;;;;;5075741;28;20115;-59
2022/05/14 00:25:08;;;;;;;3.78;3.45;;;21.00;99.90;;;;;;5075794;28;20382;-61
2022/05/14 00:27:39;;;;;;;7.25;4.28;;;21.00;99.90;;;;;;5057615;28;20411;-61
2022/05/14 00:30:06;;;;;;;5.13;4.43;;;20.90;99.90;;;;;;5075559;28;20446;-61
2022/05/14 00:32:32;;;;;;;4.50;4.10;;;20.80;99.90;;;;;;5075144;28;20024;-61
2022/05/14 00:34:58;;;;;;;4.63;4.00;;;20.70;99.90;;;;;;5075395;28;20032;-60
2022/05/14 00:37:23;;;;;;;4.35;3.72;;;20.70;99.90;;;;;;5075141;28;20025;-63
2022/05/14 00:39:49;;;;;;;5.50;3.70;;;20.70;99.90;;;;;;5075242;28;20024;-60
2022/05/14 00:42:14;;;;;;;4.00;3.40;;;20.60;99.90;;;;;;5075246;28;20547;-63
2022/05/14 00:44:40;;;;;;;4.00;3.60;;;20.70;99.90;;;;;;5075139;28;20024;-60
2022/05/14 00:47:12;;;;;;;4.90;4.00;;;20.80;99.90;;;;;;5074911;28;20048;-60
2022/05/14 00:49:38;;;;;;;4.40;3.70;;;20.80;99.90;;;;;;5074941;28;20040;-61
2022/05/14 00:52:04;;;;;;;4.13;3.33;;;20.80;99.90;;;;;;5074965;28;20025;-63
2022/05/14 00:54:59;;;;;;;3.55;3.22;;;20.80;99.90;;;;;;5073910;28;20107;-59
2022/05/14 00:57:29;;;;;;;3.75;3.45;;;20.80;99.90;;;;;;5063110;28;20036;-61
2022/05/14 00:59:56;;;;;;;3.42;3.03;;;20.90;99.90;;;;;;5075071;28;20043;-60
2022/05/14 01:02:22;;;;;;;2.95;2.75;;;21.00;99.90;;;;;;5074657;28;20082;-61
2022/05/14 01:04:47;;;;;;;3.13;2.80;;;21.10;99.90;;;;;;5074644;28;20466;-58
2022/05/14 01:07:17;;;;;;;4.60;3.40;;;21.20;99.90;;;;;;5074589;28;20025;-60
2022/05/14 01:09:48;;;;;;;6.63;3.75;;;21.20;99.90;;;;;;5074458;28;20046;-59
2022/05/14 01:12:15;;;;;;;3.42;3.13;;;21.20;99.90;;;;;;5074477;28;20099;-60
2022/05/14 01:14:41;;;;;;;3.22;2.92;;;21.10;99.90;;;;;;5074415;28;20460;-61
2022/05/14 01:17:07;;;;;;;4.82;3.92;;;21.20;99.90;;;;;;5074583;28;20104;-60
2022/05/14 01:19:33;;;;;;;7.07;4.50;;;21.30;99.90;;;;;;5074353;28;20076;-63
2022/05/14 01:22:01;;;;;;;4.68;4.18;;;21.30;99.90;;;;;;5074469;28;20025;-56
2022/05/14 01:27:35;;;;;;;5.90;4.18;;;21.30;99.90;;;;;;5074212;28;20501;-60
2022/05/14 01:30:01;;;;;;;5.70;4.78;;;21.30;99.90;;;;;;5074096;28;20025;-62
2022/05/14 01:32:27;;;;;;;4.53;3.85;;;21.30;99.90;;;;;;5074005;28;20099;-60
2022/05/14 01:34:53;;;;;;;4.82;3.80;;;21.20;99.90;;;;;;5074428;28;20020;-59
2022/05/14 01:37:20;;;;;;;4.10;3.80;;;21.10;99.90;;;;;;5074058;28;20075;-60
2022/05/14 01:39:46;;;;;;;3.47;3.28;;;21.20;99.90;;;;;;5074071;28;20459;-58
2022/05/14 01:42:12;;;;;;;3.60;3.30;;;21.30;99.90;;;;;;5073989;28;20028;-59
2022/05/14 01:44:38;;;;;;;3.70;3.40;;;21.40;99.90;;;;;;5073802;28;20028;-62
2022/05/14 01:47:04;;;;;;;4.22;3.20;;;21.40;99.90;;;;;;5073815;28;20028;-59
2022/05/14 01:49:30;;;;;;;3.50;3.10;;;21.40;99.90;;;;;;5073882;28;20039;-60
2022/05/14 01:51:56;;;;;;;6.32;3.40;;;21.60;99.90;;;;;;5073808;28;20102;-62
2022/05/14 01:54:21;;;;;;;4.00;3.30;;;21.60;99.90;;;;;;5073693;28;20139;-60
2022/05/14 01:56:47;;;;;;;3.30;2.75;;;21.50;99.90;;;;;;5073829;28;20051;-60
2022/05/14 01:59:14;;;;;;;6.05;5.18;;;21.50;99.90;;;;;;5073590;28;20051;-59
2022/05/14 02:01:40;;;;;;;5.25;4.20;;;21.60;99.90;;;;;;5073551;28;20029;-60
2022/05/14 02:04:08;;;;;;;5.00;3.90;;;21.40;99.90;;;;;;5073722;28;20090;-62
2022/05/14 02:06:35;;;;;;;8.05;3.72;;;21.20;99.90;;;;;;5073812;28;20024;-57
2022/05/14 02:09:02;;;;;;;4.03;3.50;;;21.20;99.90;;;;;;5073711;28;20441;-60
2022/05/14 02:11:28;;;;;;;3.78;3.33;;;21.10;99.90;;;;;;5073796;28;20078;-63
2022/05/14 02:13:56;;;;;;;4.80;3.58;;;21.10;99.90;;;;;;5073390;28;20058;-63
2022/05/14 02:16:21;;;;;;;3.38;2.90;;;21.20;99.90;;;;;;5073427;28;20101;-63
2022/05/14 02:18:48;;;;;;;2.60;2.40;;;21.20;99.90;;;;;;5073679;28;20032;-58
2022/05/14 02:21:15;;;;;;;2.88;2.67;;;21.20;99.90;;;;;;5073317;28;20021;-60
2022/05/14 02:23:41;;;;;;;2.60;2.40;;;21.30;99.90;;;;;;5073346;28;20116;-58
2022/05/14 02:26:10;;;;;;;2.45;2.25;;;21.40;99.90;;;;;;5073363;28;20024;-60
2022/05/14 02:28:36;;;;;;;2.28;2.08;;;21.50;99.90;;;;;;5073354;28;20394;-60
2022/05/14 02:31:01;;;;;;;3.72;2.38;;;21.50;99.90;;;;;;5073220;28;20051;-63
2022/05/14 02:33:27;;;;;;;2.60;2.40;;;21.50;99.90;;;;;;5073537;28;20066;-60
2022/05/14 02:35:53;;;;;;;2.05;1.95;;;21.50;99.90;;;;;;5073342;28;20024;-63
2022/05/14 02:38:19;;;;;;;3.13;2.20;;;21.40;99.90;;;;;;5073199;28;20052;-61
2022/05/14 02:40:45;;;;;;;1.88;1.60;;;21.40;99.90;;;;;;5073178;28;20077;-63
2022/05/14 02:43:11;;;;;;;1.80;1.70;;;21.40;99.90;;;;;;5072919;28;20017;-63
2022/05/14 02:45:37;;;;;;;2.22;1.98;;;21.50;99.90;;;;;;5073264;28;20031;-63
2022/05/14 02:48:03;;;;;;;2.83;2.40;;;21.60;99.90;;;;;;5072911;28;20024;-63
2022/05/14 02:50:29;;;;;;;3.72;3.35;;;21.60;99.90;;;;;;5073238;28;20025;-64
2022/05/14 02:52:55;;;;;;;4.50;3.70;;;21.60;99.90;;;;;;5073098;28;20027;-59
2022/05/14 02:55:21;;;;;;;4.75;4.30;;;21.50;99.90;;;;;;5072950;28;20460;-63
2022/05/14 02:57:47;;;;;;;3.67;3.28;;;21.40;99.90;;;;;;5072775;28;20076;-62
2022/05/14 03:00:16;;;;;;;4.22;3.78;;;21.40;99.90;;;;;;5073262;28;20044;-60
2022/05/14 03:02:42;;;;;;;4.43;3.58;;;21.30;99.90;;;;;;5073175;28;20082;-62
2022/05/14 03:05:08;;;;;;;3.30;3.00;;;21.20;99.90;;;;;;5072894;28;20021;-63
2022/05/14 03:07:34;;;;;;;3.55;2.60;;;21.10;99.90;;;;;;5072799;28;20434;-62
2022/05/14 03:10:00;;;;;;;2.70;2.50;;;20.90;99.90;;;;;;5072884;28;20029;-60
2022/05/14 03:12:26;;;;;;;2.88;2.55;;;20.70;99.90;;;;;;5072919;28;20017;-61
2022/05/14 03:14:52;;;;;;;3.78;2.20;;;20.60;99.90;;;;;;5072814;28;20025;-59
2022/05/14 03:17:18;;;;;;;3.20;2.38;;;20.60;99.90;;;;;;5074562;28;20027;-61
2022/05/14 03:19:44;;;;;;;2.55;1.95;;;20.50;99.90;;;;;;5076824;28;20058;-62
2022/05/14 03:22:11;;;;;;;1.88;1.77;;;20.60;99.90;;;;;;5076761;28;20013;-62
2022/05/14 03:24:37;;;;;;;1.95;1.85;;;20.50;99.90;;;;;;5076850;28;20024;-61
2022/05/14 03:27:03;;;;;;;1.52;1.42;;;20.60;99.90;;;;;;5076614;28;20104;-60
2022/05/14 03:29:29;;;;;;;1.77;1.67;;;20.70;99.90;;;;;;5076478;28;20029;-60
2022/05/14 03:31:57;;;;;;;3.33;1.70;;;20.80;99.90;;;;;;5076480;28;20501;-61
2022/05/14 03:34:23;;;;;;;1.50;1.40;;;20.80;99.90;;;;;;5058475;28;20372;-62
2022/05/14 03:36:49;;;;;;;4.28;3.67;;;20.80;99.90;;;;;;5076388;28;20029;-64
2022/05/14 03:39:15;;;;;;;9.82;7.07;;;20.80;99.90;;;;;;5076381;28;20021;-62
2022/05/14 03:41:41;;;;;;;11.05;7.68;;;20.70;99.90;;;;;;5076134;28;20016;-60
2022/05/14 03:44:07;;;;;;;6.35;5.68;;;20.60;99.90;;;;;;5076297;28;20027;-58
2022/05/14 03:46:34;;;;;;;11.10;9.85;;;20.60;99.90;;;;;;5076167;28;20020;-62
2022/05/14 03:49:00;;;;;;;11.25;8.50;;;20.50;99.90;;;;;;5076276;28;20033;-61
2022/05/14 03:51:27;;;;;;;12.85;8.20;;;20.30;99.90;;;;;;5076416;28;20040;-60
2022/05/14 03:53:53;;;;;;;9.13;7.75;;;20.50;99.90;;;;;;5076187;28;20028;-61
2022/05/14 03:56:19;;;;;;;13.57;8.35;;;20.50;99.90;;;;;;5076087;28;20493;-64
2022/05/14 03:58:44;;;;;;;9.70;7.93;;;20.70;99.90;;;;;;5075780;28;20048;-63
2022/05/14 04:01:10;;;;;;;8.45;7.38;;;20.70;99.90;;;;;;5076060;28;20070;-58
2022/05/14 04:03:36;;;;;;;9.65;7.18;;;20.60;99.90;;;;;;5075772;28;20028;-62
2022/05/14 04:06:06;;;;;;;9.93;6.75;;;20.60;99.90;;;;;;5076117;28;20089;-59
2022/05/14 04:08:32;;;;;;;9.80;7.28;;;20.70;99.90;;;;;;5075777;28;20081;-61
2022/05/14 04:10:58;;;;;;;11.43;6.53;;;20.80;99.90;;;;;;5075432;28;20500;-61
2022/05/14 04:13:26;;;;;;;11.00;7.68;;;20.90;99.90;;;;;;5075684;28;20051;-60
2022/05/14 04:15:52;;;;;;;10.45;8.43;;;20.80;99.90;;;;;;5075644;28;20149;-60
2022/05/14 04:18:24;;;;;;;10.95;8.30;;;20.90;99.90;;;;;;5075632;28;20030;-64
2022/05/14 04:20:53;;;;;;;13.88;9.52;;;20.90;99.90;;;;;;5075582;28;20031;-64
2022/05/14 04:23:20;;;;;;;14.23;11.23;;;20.90;99.90;;;;;;5075648;28;20392;-58
2022/05/14 04:25:48;;;;;;;15.40;10.82;;;20.90;99.90;;;;;;5075661;28;20025;-61
2022/05/14 04:28:14;;;;;;;14.90;10.70;;;20.80;99.90;;;;;;5075522;28;20395;-62
2022/05/14 04:30:40;;;;;;;18.02;12.48;;;20.90;99.90;;;;;;5075458;28;20021;-57
2022/05/14 04:33:06;;;;;;;20.02;12.70;;;20.70;99.90;;;;;;5075335;28;20485;-61
2022/05/14 04:35:31;;;;;;;21.30;12.32;;;20.50;99.90;;;;;;5075351;28;20422;-60
2022/05/14 04:37:57;;;;;;;18.00;12.40;;;20.60;99.90;;;;;;5075319;28;20025;-61
2022/05/14 04:40:23;;;;;;;14.82;11.15;;;20.70;99.90;;;;;;5075153;28;20031;-61
2022/05/14 04:42:49;;;;;;;20.52;14.15;;;20.80;99.90;;;;;;5075143;28;20024;-62
2022/05/14 04:45:15;;;;;;;16.60;11.40;;;20.80;99.90;;;;;;5075171;28;20104;-59
2022/05/14 04:47:41;;;;;;;15.18;10.80;;;20.70;99.90;;;;;;5075017;28;20048;-61
2022/05/14 04:50:09;;;;;;;18.23;12.32;;;20.80;99.90;;;;;;5074993;28;20368;-58
2022/05/14 04:52:35;;;;;;;17.85;11.20;;;20.80;99.90;;;;;;5075057;28;20395;-64
2022/05/14 04:55:00;;;;;;;19.98;11.95;;;20.80;99.90;;;;;;5074906;28;20025;-61
2022/05/14 04:57:26;;;;;;;14.38;10.43;;;20.80;99.90;;;;;;5074901;28;20049;-64
2022/05/14 04:59:53;;;;;;;13.98;9.63;;;20.70;99.90;;;;;;5074807;28;20037;-63
2022/05/14 05:05:05;;;;;;;13.57;8.95;;;20.80;99.90;;;;;;5075152;28;20027;-61
2022/05/14 05:07:31;;;;;;;13.10;9.00;;;20.80;99.90;;;;;;5074368;28;20482;-63
2022/05/14 05:09:56;;;;;;;11.88;8.55;;;20.80;99.90;;;;;;5074824;28;20024;-61
2022/05/14 05:12:22;;;;;;;13.10;9.55;;;20.90;99.90;;;;;;5074724;28;20025;-64
2022/05/14 05:14:48;;;;;;;13.40;8.65;;;20.90;99.90;;;;;;5074467;28;20024;-62
2022/05/14 05:17:13;;;;;;;9.23;7.65;;;20.90;99.90;;;;;;5074580;28;20027;-60
2022/05/14 05:19:39;;;;;;;9.10;6.65;;;20.90;99.90;;;;;;5074452;28;20048;-58
2022/05/14 05:22:05;;;;;;;9.13;6.10;;;20.80;99.90;;;;;;5074326;28;20031;-61
2022/05/14 05:24:32;;;;;;;7.38;5.90;;;20.60;99.90;;;;;;5074397;28;20104;-62
2022/05/14 05:26:57;;;;;;;6.75;5.35;;;20.60;99.90;;;;;;5074183;28;20020;-60
2022/05/14 05:29:23;;;;;;;6.93;5.72;;;20.60;99.90;;;;;;5074289;28;20089;-54
2022/05/14 05:31:49;;;;;;;9.00;5.68;;;20.70;99.90;;;;;;5074245;28;20031;-61
2022/05/14 05:34:15;;;;;;;9.50;7.15;;;20.70;99.90;;;;;;5074372;28;20024;-61
2022/05/14 05:36:41;;;;;;;6.13;5.35;;;20.70;99.90;;;;;;5074219;28;20390;-62
2022/05/14 05:39:07;;;;;;;6.78;5.57;;;20.50;99.90;;;;;;5073845;28;20387;-61
2022/05/14 05:41:32;;;;;;;6.80;4.97;;;20.60;99.90;;;;;;5073734;28;20025;-62
2022/05/14 05:43:58;;;;;;;9.43;6.00;;;20.60;99.90;;;;;;5074131;28;20020;-63
2022/05/14 05:46:24;;;;;;;5.53;4.90;;;20.50;99.90;;;;;;5073915;28;20032;-64
2022/05/14 05:48:49;;;;;;;6.38;5.72;;;20.40;99.90;;;;;;5074002;28;20056;-60
2022/05/14 05:51:16;;;;;;;5.75;5.15;;;20.20;99.90;;;;;;5073932;28;20434;-60
2022/05/14 05:59:10;;;;;;;9.70;8.10;;;20.00;99.90;;;;;;5074024;28;20398;-58
2022/05/14 06:01:36;;;;;;;6.38;5.72;;;20.10;99.90;;;;;;5073849;28;20021;-60
2022/05/14 06:04:02;;;;;;;7.30;5.38;;;20.20;99.90;;;;;;5073698;28;20107;-58
2022/05/14 06:06:28;;;;;;;6.63;5.90;;;20.20;99.90;;;;;;5073355;28;20031;-60
2022/05/14 06:08:54;;;;;;;5.75;4.60;;;20.10;99.90;;;;;;5073386;28;20082;-63
2022/05/14 06:11:20;;;;;;;5.90;4.40;;;20.20;99.90;;;;;;5073803;28;20066;-62
2022/05/14 06:13:45;;;;;;;5.32;4.45;;;20.20;99.90;;;;;;5073710;28;20417;-59
2022/05/14 06:16:13;;;;;;;4.97;4.47;;;20.30;99.90;;;;;;5073472;28;20017;-63
2022/05/14 06:18:39;;;;;;;5.57;4.28;;;20.30;99.90;;;;;;5073592;28;20041;-64
2022/05/14 06:21:05;;;;;;;5.15;3.80;;;20.20;99.90;;;;;;5073269;28;20426;-58
2022/05/14 06:23:33;;;;;;;3.88;3.55;;;20.30;99.90;;;;;;5073466;28;20025;-63
2022/05/14 06:25:59;;;;;;;5.43;3.90;;;20.30;99.90;;;;;;5073338;28;20024;-61
2022/05/14 06:28:24;;;;;;;3.50;2.97;;;20.30;99.90;;;;;;5073206;28;20025;-64
2022/05/14 06:30:50;;;;;;;3.50;3.15;;;20.30;99.90;;;;;;5073527;28;20074;-63
2022/05/14 06:33:17;;;;;;;3.25;2.95;;;20.40;99.90;;;;;;5073209;28;20032;-61
2022/05/14 06:35:44;;;;;;;5.70;5.03;;;20.50;99.90;;;;;;5073338;28;20052;-62
2022/05/14 06:38:10;;;;;;;5.28;4.78;;;20.50;99.90;;;;;;5073508;28;20032;-59
2022/05/14 06:40:37;;;;;;;4.15;3.75;;;20.40;99.90;;;;;;5072978;28;20074;-61
2022/05/14 06:43:04;;;;;;;4.28;3.75;;;20.40;99.90;;;;;;5073127;28;20020;-62
2022/05/14 06:45:30;;;;;;;12.23;8.05;;;20.40;99.90;;;;;;5073150;28;20021;-60
2022/05/14 06:47:57;;;;;;;10.95;8.00;;;20.50;99.90;;;;;;5072888;28;20029;-60
2022/05/14 06:50:25;;;;;;;16.73;10.38;;;20.40;99.90;;;;;;5072884;28;20109;-62
2022/05/14 06:52:56;;;;;;;12.05;8.80;;;20.50;99.90;;;;;;5075664;28;20017;-60
2022/05/14 06:55:26;;;;;;;15.13;8.90;;;20.40;99.90;;;;;;5077411;28;20024;-63
2022/05/14 06:57:52;;;;;;;9.60;6.93;;;20.40;99.90;;;;;;5077131;28;20053;-63
2022/05/14 07:00:19;;;;;;;9.18;7.38;;;20.60;99.90;;;;;;5077116;28;20025;-59
2022/05/14 07:02:46;;;;;;;10.38;7.35;;;20.70;99.90;;;;;;5076934;28;20016;-61
2022/05/14 07:07:58;;;;;;;11.50;8.15;;;21.00;99.90;;;;;;5077111;28;20398;-60
2022/05/14 07:10:24;;;;;;;14.43;10.23;;;21.10;99.90;;;;;;5076999;28;20095;-63
2022/05/14 07:12:51;;;;;;;11.35;7.68;;;21.00;99.90;;;;;;5076909;28;20055;-62
2022/05/14 07:15:17;;;;;;;7.57;6.70;;;21.00;99.90;;;;;;5076794;28;20463;-61
2022/05/14 07:17:44;;;;;;;11.32;7.47;;;21.20;99.90;;;;;;5076919;28;20538;-59
2022/05/14 07:20:10;;;;;;;8.75;6.60;;;21.10;99.90;;;;;;5076917;28;20135;-59
2022/05/14 07:22:36;;;;;;;9.40;7.07;;;21.20;99.90;;;;;;5076631;28;20035;-57
2022/05/14 07:25:03;;;;;;;10.98;6.53;;;21.20;99.90;;;;;;5076658;28;20028;-61
2022/05/14 07:27:29;;;;;;;11.00;8.23;;;21.30;99.90;;;;;;5076954;28;20029;-62
2022/05/14 07:29:55;;;;;;;10.82;7.15;;;21.30;99.90;;;;;;5076440;28;20132;-58
2022/05/14 07:32:21;;;;;;;6.45;5.10;;;21.30;99.90;;;;;;5058401;28;20021;-59
2022/05/14 07:34:47;;;;;;;5.85;4.95;;;21.40;99.90;;;;;;5076428;28;20113;-59
2022/05/14 07:37:20;;;;;;;10.75;5.57;;;21.60;99.90;;;;;;5076344;28;20024;-60
2022/05/14 07:39:57;;;;;;;5.97;5.13;;;21.70;99.90;;;;;;5076392;28;20054;-62
2022/05/14 07:42:33;;;;;;;6.63;4.93;;;21.80;99.90;;;;;;5076389;28;20486;-59
2022/05/14 07:45:02;;;;;;;5.13;4.63;;;21.80;99.90;;;;;;5076544;28;20493;-60
2022/05/14 07:47:30;;;;;;;8.43;5.40;;;21.90;99.90;;;;;;5076092;28;20017;-60
2022/05/14 07:49:57;;;;;;;4.88;4.13;;;22.00;99.90;;;;;;5076002;28;20487;-63
2022/05/14 07:52:24;;;;;;;12.02;6.47;;;22.00;99.90;;;;;;5076146;28;20062;-59
2022/05/14 07:54:49;;;;;;;6.38;4.63;;;22.00;99.90;;;;;;5076387;28;20143;-61
2022/05/14 07:57:18;;;;;;;8.63;6.95;;;22.00;99.90;;;;;;5075773;28;20134;-60
2022/05/14 07:59:44;;;;;;;6.63;5.38;;;22.10;99.90;;;;;;5076035;28;20024;-59
2022/05/14 08:02:34;;;;;;;9.57;7.47;;;22.00;99.90;;;;;;5075599;28;20419;-63
2022/05/14 08:05:05;;;;;;;9.27;7.70;;;21.70;99.90;;;;;;5076183;28;20108;-59
2022/05/14 08:07:31;;;;;;;7.32;6.63;;;21.90;99.90;;;;;;5075874;28;20027;-63
2022/05/14 08:09:58;;;;;;;11.95;8.95;;;22.10;99.90;;;;;;5075644;28;20060;-60
2022/05/14 08:12:24;;;;;;;14.15;11.30;;;22.20;99.90;;;;;;5075725;28;20494;-60
2022/05/14 08:14:50;;;;;;;10.45;9.18;;;22.20;99.90;;;;;;5075687;28;20479;-62
2022/05/14 08:17:16;;;;;;;9.77;8.65;;;22.20;99.90;;;;;;5075673;28;20021;-61
2022/05/14 08:19:42;;;;;;;14.15;10.80;;;22.30;99.90;;;;;;5075885;28;20504;-60
2022/05/14 08:24:52;;;;;;;11.05;9.88;;;22.40;99.90;;;;;;5075788;28;20069;-61
2022/05/14 08:27:18;;;;;;;10.50;9.50;;;22.60;99.90;;;;;;5075742;28;20433;-61
2022/05/14 08:29:45;;;;;;;9.68;8.68;;;22.90;99.90;;;;;;5075181;28;20115;-63
2022/05/14 08:32:11;;;;;;;8.40;7.63;;;23.10;99.90;;;;;;5075324;28;20025;-58
2022/05/14 08:34:37;;;;;;;11.00;9.93;;;23.30;99.90;;;;;;5075370;28;20025;-63
2022/05/14 08:37:03;;;;;;;11.20;10.05;;;24.30;99.90;;;;;;5075346;28;20027;-59
2022/05/14 08:39:29;;;;;;;17.40;13.48;;;24.40;99.90;;;;;;5075481;28;20364;-63
2022/05/14 08:41:59;;;;;;;24.30;18.63;;;24.70;99.90;;;;;;5075135;28;20074;-58
2022/05/14 08:44:28;;;;;;;17.30;15.38;;;25.50;99.60;;;;;;5075063;28;20086;-59
2022/05/14 08:46:57;;;;;;;14.32;12.98;;;26.80;98.80;;;;;;5075050;28;20096;-60
2022/05/14 08:49:50;;;;;;;14.35;12.50;;;27.40;97.70;;;;;;5075278;28;20040;-60
2022/05/14 08:52:25;;;;;;;21.75;12.88;;;29.20;93.80;;;;;;5075592;28;20032;-63
2022/05/14 08:54:57;;;;;;;11.57;10.27;;;30.40;86.60;;;;;;5075108;28;20024;-60
2022/05/14 08:57:24;;;;;;;10.90;9.80;;;30.20;83.60;;;;;;5074601;28;20101;-62
2022/05/14 08:59:55;;;;;;;10.65;9.55;;;30.80;79.00;;;;;;5056835;28;20395;-63
2022/05/14 09:02:35;;;;;;;9.30;8.40;;;30.90;77.40;;;;;;5074845;28;20025;-61
2022/05/14 09:05:06;;;;;;;9.50;8.60;;;29.60;77.10;;;;;;5074779;28;20027;-61
2022/05/14 09:07:33;;;;;;;22.98;18.95;;;28.60;79.40;;;;;;5074754;28;20032;-64
2022/05/14 09:09:59;;;;;;;17.27;15.48;;;27.90;80.50;;;;;;5074804;28;20075;-61
2022/05/14 09:12:30;;;;;;;26.83;23.90;;;27.60;86.90;;;;;;5074717;28;20476;-62
2022/05/14 09:14:59;;;;;;;21.02;18.90;;;28.40;87.20;;;;;;5073479;28;20046;-63
2022/05/14 09:17:29;;;;;;;17.27;15.57;;;29.00;87.90;;;;;;5074482;28;20021;-62
2022/05/14 09:19:56;;;;;;;17.55;15.68;;;29.70;82.20;;;;;;5074562;28;20474;-62
2022/05/14 09:22:33;;;;;;;15.32;13.82;;;30.40;77.70;;;;;;5074447;28;20025;-59
2022/05/14 09:25:17;;;;;;;19.63;17.63;;;31.30;76.20;;;;;;5074438;28;20379;-61
2022/05/14 09:28:00;;;;;;;15.52;14.02;;;31.60;73.50;;;;;;5074237;28;20600;-60
2022/05/14 09:30:51;;;;;;;12.38;10.88;;;31.70;74.80;;;;;;5074356;28;20021;-61
2022/05/14 09:33:27;;;;;;;10.05;9.15;;;31.50;71.50;;;;;;5074201;28;20032;-63
2022/05/14 09:35:58;;;;;;;9.38;8.48;;;31.70;71.30;;;;;;5074260;28;20029;-59
2022/05/14 09:38:25;;;;;;;11.15;9.93;;;31.10;71.40;;;;;;5073950;28;20470;-61
2022/05/14 09:40:52;;;;;;;11.65;10.55;;;31.40;71.50;;;;;;5074089;28;20051;-62
2022/05/14 09:43:18;;;;;;;12.35;11.25;;;31.70;68.70;;;;;;5073898;28;20073;-59
2022/05/14 09:46:00;;;;;;;11.57;10.48;;;32.10;66.80;;;;;;5073872;28;20020;-61
2022/05/14 09:48:47;;;;;;;11.77;10.68;;;32.30;64.80;;;;;;5074157;28;20033;-59
2022/05/14 09:51:25;;;;;;;12.85;11.32;;;32.60;64.00;;;;;;5073901;28;20081;-63
2022/05/14 09:53:52;;;;;;;14.20;12.63;;;32.60;63.50;;;;;;5073824;28;20025;-61
2022/05/14 09:56:39;;;;;;;13.98;12.05;;;32.70;60.00;;;;;;5073739;28;20027;-64
2022/05/14 09:59:35;;;;;;;12.23;11.13;;;33.20;59.30;;;;;;5073543;28;20094;-63
2022/05/14 10:02:43;;;;;;;11.20;10.20;;;33.00;59.80;;;;;;5073738;28;20025;-63
2022/05/14 10:05:42;;;;;;;10.52;9.50;;;31.80;56.60;;;;;;5036014;28;20038;-61
2022/05/14 10:08:26;;;;;;;7.80;7.10;;;30.80;58.90;;;;;;5073522;28;20039;-63
2022/05/14 10:11:06;;;;;;;7.65;6.95;;;30.70;58.20;;;;;;5073824;28;20036;-65
2022/05/14 10:13:40;;;;;;;10.52;9.18;;;31.20;63.30;;;;;;5073545;28;20025;-63
2022/05/14 10:16:31;;;;;;;9.32;8.52;;;31.70;57.80;;;;;;5073487;28;20036;-61
2022/05/14 10:19:11;;;;;;;10.07;9.18;;;32.30;57.60;;;;;;5073375;28;20032;-63
2022/05/14 10:22:00;;;;;;;8.90;8.10;;;31.50;57.40;;;;;;5073388;28;20074;-62
2022/05/14 10:27:25;;;;;;;8.70;7.63;;;32.40;57.30;;;;;;5073061;28;20497;-64
2022/05/14 10:30:00;;;;;;;6.20;5.55;;;32.10;56.30;;;;;;5073246;28;20060;-62
2022/05/14 10:32:30;;;;;;;6.85;6.00;;;32.40;58.50;;;;;;5073416;28;20021;-64
2022/05/14 10:35:34;;;;;;;7.30;6.60;;;32.70;52.30;;;;;;5073275;28;20035;-62
2022/05/14 10:38:11;;;;;;;7.03;6.32;;;32.70;52.10;;;;;;5073031;28;20112;-61
2022/05/14 10:40:48;;;;;;;7.45;6.20;;;32.60;51.90;;;;;;5073005;28;20019;-61
2022/05/14 10:43:29;;;;;;;6.93;6.22;;;32.60;52.80;;;;;;5073276;28;20387;-61
2022/05/14 10:45:57;;;;;;;6.50;5.35;;;32.30;53.70;;;;;;5073361;28;20028;-62
2022/05/14 10:48:49;;;;;;;7.63;5.63;;;32.30;53.30;;;;;;5073342;28;20152;-63
2022/05/14 10:51:22;;;;;;;7.03;5.13;;;31.70;54.50;;;;;;5073609;28;20025;-61
2022/05/14 10:53:48;;;;;;;8.15;5.85;;;31.10;55.00;;;;;;5073089;28;20029;-61
2022/05/14 10:56:22;;;;;;;7.55;5.30;;;31.50;54.50;;;;;;5072682;28;20028;-63
2022/05/14 10:59:04;;;;;;;5.47;4.78;;;31.70;54.50;;;;;;5072836;28;20037;-61
2022/05/14 11:01:35;;;;;;;6.68;4.72;;;31.80;56.20;;;;;;5073287;28;20032;-60
2022/05/14 11:04:07;;;;;;;6.00;5.00;;;31.10;56.20;;;;;;5073052;28;20031;-63
2022/05/14 11:06:46;;;;;;;5.28;4.55;;;30.30;57.30;;;;;;5072959;28;20033;-65
2022/05/14 11:09:19;;;;;;;4.32;3.92;;;29.90;57.30;;;;;;5072893;28;20031;-61
2022/05/14 11:11:53;;;;;;;4.25;3.85;;;29.70;59.20;;;;;;5072887;28;20036;-61
2022/05/14 11:14:19;;;;;;;4.90;3.88;;;29.50;60.10;;;;;;5072762;28;20027;-62
2022/05/14 11:16:51;;;;;;;5.28;3.95;;;29.40;58.80;;;;;;5073179;28;20021;-58
2022/05/14 11:19:32;;;;;;;4.13;3.58;;;29.90;58.30;;;;;;5072751;28;20032;-61
2022/05/14 11:21:59;;;;;;;5.25;3.90;;;30.30;59.70;;;;;;5073081;28;20025;-64
2022/05/14 11:24:40;;;;;;;3.45;3.15;;;30.50;59.90;;;;;;5072592;28;20564;-61
2022/05/14 11:27:07;;;;;;;4.20;3.28;;;30.60;60.20;;;;;;5072903;28;20020;-61
2022/05/14 11:29:55;;;;;;;3.17;2.88;;;31.20;56.10;;;;;;5072637;28;20471;-64
2022/05/14 11:32:22;;;;;;;3.85;2.83;;;31.80;54.80;;;;;;5073000;28;20028;-62
2022/05/14 11:34:57;;;;;;;3.03;2.55;;;31.80;54.50;;;;;;5072609;28;20024;-64
2022/05/14 11:37:33;;;;;;;5.88;3.05;;;31.80;56.30;;;;;;5072730;28;20025;-63
2022/05/14 11:40:14;;;;;;;3.83;2.85;;;32.10;55.20;;;;;;5076328;28;20050;-61
2022/05/14 11:42:40;;;;;;;3.17;2.88;;;32.10;52.50;;;;;;5076234;28;20039;-62
2022/05/14 11:45:14;;;;;;;3.50;3.00;;;32.40;52.90;;;;;;5076267;28;20021;-60
2022/05/14 11:48:03;;;;;;;4.97;2.78;;;32.70;51.50;;;;;;5076297;28;20593;-62
2022/05/14 11:50:52;;;;;;;4.18;3.53;;;33.10;50.70;;;;;;5076159;28;20028;-64
2022/05/14 11:53:38;;;;;;;4.03;3.17;;;32.80;50.80;;;;;;5075208;28;20402;-64
2022/05/14 11:56:15;;;;;;;9.07;2.92;;;32.40;50.30;;;;;;5076135;28;20031;-62
2022/05/14 11:58:50;;;;;;;3.13;2.53;;;32.40;50.00;;;;;;5075948;28;20047;-61
2022/05/14 12:01:24;;;;;;;3.42;2.53;;;32.40;49.20;;;;;;5076114;28;20142;-64
2022/05/14 12:03:52;;;;;;;3.63;2.38;;;32.90;47.50;;;;;;5076017;28;20505;-64
2022/05/14 12:06:54;;;;;;;3.63;2.80;;;33.00;47.00;;;;;;5076230;28;20024;-59
2022/05/14 12:09:44;;;;;;;4.40;2.30;;;33.20;45.80;;;;;;5058579;28;20037;-62
2022/05/14 12:12:15;;;;;;;2.35;1.73;;;33.50;46.90;;;;;;5075784;28;20020;-61
2022/05/14 12:14:42;;;;;;;3.67;1.90;;;33.10;43.60;;;;;;5075767;28;20073;-62
2022/05/14 12:17:14;;;;;;;1.77;1.67;;;33.20;45.90;;;;;;5075674;28;20020;-63
2022/05/14 12:19:41;;;;;;;1.73;1.30;;;32.90;44.90;;;;;;5075969;28;20035;-63
2022/05/14 12:22:17;;;;;;;1.75;1.42;;;32.80;44.80;;;;;;5075727;28;20154;-63
2022/05/14 12:24:55;;;;;;;4.20;1.80;;;32.60;42.80;;;;;;5075553;28;20054;-63
2022/05/14 12:27:21;;;;;;;4.93;1.60;;;32.50;43.10;;;;;;5075684;28;20016;-62
2022/05/14 12:29:55;;;;;;;3.20;1.42;;;32.80;41.80;;;;;;5075489;28;20108;-61
2022/05/14 12:35:24;;;;;;;4.47;1.80;;;33.50;41.10;;;;;;5075373;28;20059;-62
2022/05/14 12:37:55;;;;;;;2.72;1.50;;;33.40;41.50;;;;;;5075444;28;20017;-63
2022/05/14 12:40:23;;;;;;;2.85;1.20;;;33.30;44.60;;;;;;5075507;28;20110;-62
2022/05/14 12:42:51;;;;;;;1.73;1.45;;;33.30;43.50;;;;;;5075268;28;20078;-61
2022/05/14 12:45:16;;;;;;;3.22;1.33;;;33.40;43.40;;;;;;5075240;28;20488;-62
2022/05/14 12:47:43;;;;;;;2.10;1.17;;;33.80;45.00;;;;;;5074894;28;20025;-65
2022/05/14 12:50:19;;;;;;;1.52;1.30;;;34.20;42.90;;;;;;5075075;28;20035;-63
2022/05/14 12:52:55;;;;;;;1.50;1.40;;;34.50;42.60;;;;;;5075176;28;20027;-63
2022/05/14 12:55:22;;;;;;;2.33;1.10;;;34.70;41.40;;;;;;5075242;28;20060;-64
2022/05/14 12:57:48;;;;;;;1.65;1.40;;;34.80;41.60;;;;;;5074711;28;20099;-64
2022/05/14 13:00:17;;;;;;;2.35;1.20;;;34.90;42.00;;;;;;5074987;28;20025;-64
2022/05/14 13:02:47;;;;;;;3.00;1.30;;;34.60;41.00;;;;;;5074896;28;20390;-61
2022/05/14 13:05:19;;;;;;;1.85;1.10;;;34.10;41.70;;;;;;5074934;28;20066;-64
2022/05/14 13:07:58;;;;;;;2.50;1.50;;;33.60;40.30;;;;;;5074618;28;20017;-63
2022/05/14 13:10:27;;;;;;;2.15;1.20;;;33.10;39.90;;;;;;5074707;28;20028;-61
2022/05/14 13:12:59;;;;;;;1.60;1.10;;;33.00;41.10;;;;;;5074555;28;20531;-61
2022/05/14 13:15:39;;;;;;;2.53;1.25;;;33.10;40.90;;;;;;5074558;28;20027;-63
2022/05/14 13:18:15;;;;;;;2.25;1.30;;;33.20;40.80;;;;;;5074616;28;20025;-60
2022/05/14 13:20:41;;;;;;;1.67;1.38;;;33.40;40.90;;;;;;5074466;28;20506;-63